createdAt,value
2017-09-04T00:00:24.119Z,10.10
2017-09-04T00:02:51.659Z,10.20
2017-09-04T00:05:19.226Z,10.10
2017-09-04T00:10:20.835Z,10.20
2017-09-04T00:12:48.372Z,10.10
2017-09-04T00:15:15.923Z,10.00
2017-09-04T00:17:43.459Z,10.00
2017-09-04T00:20:11.011Z,9.90
2017-09-04T00:22:38.534Z,9.80
2017-09-04T00:25:06.088Z,9.80
2017-09-04T00:27:33.616Z,9.70
2017-09-04T00:30:01.142Z,9.80
2017-09-04T00:32:28.690Z,9.80
2017-09-04T00:34:56.227Z,9.80
2017-09-04T00:37:23.775Z,9.80
2017-09-04T00:39:51.299Z,9.90
2017-09-04T00:42:18.858Z,9.90
2017-09-04T00:44:46.396Z,9.80
2017-09-04T00:47:13.952Z,9.80
2017-09-04T00:49:41.479Z,9.80
2017-09-04T00:52:09.057Z,9.70
2017-09-04T00:54:36.582Z,9.60
2017-09-04T00:57:04.145Z,9.60
2017-09-04T00:59:31.677Z,9.60
2017-09-04T01:01:59.234Z,9.70
2017-09-04T01:04:26.764Z,9.60
2017-09-04T01:06:54.318Z,9.60
2017-09-04T01:09:21.847Z,9.50
2017-09-04T01:11:49.402Z,9.50
2017-09-04T01:14:16.940Z,9.40
2017-09-04T01:16:44.499Z,9.30
2017-09-04T01:19:12.028Z,9.40
2017-09-04T01:21:39.586Z,9.30
2017-09-04T01:24:07.118Z,9.30
2017-09-04T01:26:34.656Z,9.30
2017-09-04T01:29:02.223Z,9.30
2017-09-04T01:31:29.749Z,9.30
2017-09-04T01:33:57.307Z,9.30
2017-09-04T01:36:24.839Z,9.30
2017-09-04T01:38:52.401Z,9.30
2017-09-04T01:41:19.931Z,9.20
2017-09-04T01:43:47.486Z,9.20
2017-09-04T01:46:15.024Z,9.10
2017-09-04T01:48:42.578Z,9.10
2017-09-04T01:51:10.107Z,9.10
2017-09-04T01:53:37.663Z,9.10
2017-09-04T01:56:05.200Z,9.20
2017-09-04T01:58:32.760Z,9.20
2017-09-04T02:01:00.287Z,9.10
2017-09-04T02:03:27.844Z,9.10
2017-09-04T02:05:55.379Z,9.20
2017-09-04T02:08:22.940Z,9.10
2017-09-04T02:10:50.480Z,9.10
2017-09-04T02:13:18.045Z,9.20
2017-09-04T02:15:45.575Z,9.20
2017-09-04T02:18:13.122Z,9.20
2017-09-04T02:20:40.651Z,9.20
2017-09-04T02:23:08.209Z,9.30
2017-09-04T02:25:35.751Z,9.40
2017-09-04T02:28:03.326Z,9.30
2017-09-04T02:30:30.867Z,9.20
2017-09-04T02:32:58.397Z,9.10
2017-09-04T02:35:25.947Z,9.10
2017-09-04T02:37:53.475Z,9.00
2017-09-04T02:40:21.028Z,8.90
2017-09-04T02:42:48.568Z,8.90
2017-09-04T02:45:16.123Z,8.90
2017-09-04T02:47:43.663Z,8.90
2017-09-04T02:50:11.227Z,8.90
2017-09-04T02:52:38.763Z,8.90
2017-09-04T02:55:06.324Z,8.80
2017-09-04T02:57:33.862Z,8.90
2017-09-04T03:00:01.424Z,8.90
2017-09-04T03:02:28.962Z,8.90
2017-09-04T03:04:56.518Z,8.90
2017-09-04T03:07:24.046Z,8.90
2017-09-04T03:09:51.594Z,8.80
2017-09-04T03:12:19.123Z,8.80
2017-09-04T03:14:46.678Z,8.80
2017-09-04T03:17:14.214Z,8.80
2017-09-04T03:19:41.771Z,8.70
2017-09-04T03:22:09.302Z,8.80
2017-09-04T03:24:36.861Z,8.80
2017-09-04T03:27:04.394Z,8.80
2017-09-04T03:29:31.930Z,8.80
2017-09-04T03:31:59.487Z,8.90
2017-09-04T03:34:27.023Z,8.80
2017-09-04T03:36:54.575Z,8.80
2017-09-04T03:39:22.114Z,8.70
2017-09-04T03:41:49.670Z,8.70
2017-09-04T03:44:17.203Z,8.70
2017-09-04T03:46:44.756Z,8.70
2017-09-04T03:49:12.288Z,8.70
2017-09-04T03:51:39.840Z,8.70
2017-09-04T03:54:07.379Z,8.70
2017-09-04T03:56:34.926Z,8.70
2017-09-04T03:59:02.459Z,8.80
2017-09-04T04:01:30.015Z,8.80
2017-09-04T04:03:57.543Z,8.80
2017-09-04T04:06:25.098Z,8.80
2017-09-04T04:08:52.628Z,8.80
2017-09-04T04:11:20.188Z,8.90
2017-09-04T04:13:47.718Z,8.90
2017-09-04T04:16:15.280Z,8.80
2017-09-04T04:18:42.806Z,8.70
2017-09-04T04:21:10.364Z,8.70
2017-09-04T04:23:37.894Z,8.60
2017-09-04T04:26:05.450Z,8.60
2017-09-04T04:28:32.983Z,8.60
2017-09-04T04:31:00.514Z,8.50
2017-09-04T04:33:28.076Z,8.60
2017-09-04T04:35:55.750Z,8.60
2017-09-04T04:38:23.331Z,8.60
2017-09-04T04:40:50.862Z,8.60
2017-09-04T04:43:18.426Z,8.50
2017-09-04T04:45:46.014Z,8.50
2017-09-04T04:48:13.571Z,8.60
2017-09-04T04:50:41.099Z,8.50
2017-09-04T04:53:08.660Z,8.60
2017-09-04T04:55:36.225Z,8.60
2017-09-04T04:58:03.763Z,8.60
2017-09-04T05:00:31.304Z,8.60
2017-09-04T05:02:58.885Z,8.60
2017-09-04T05:05:26.415Z,8.70
2017-09-04T05:07:54.035Z,8.70
2017-09-04T05:10:21.563Z,8.80
2017-09-04T05:12:49.122Z,8.80
2017-09-04T05:15:16.655Z,8.90
2017-09-04T05:17:44.219Z,8.80
2017-09-04T05:20:11.747Z,8.90
2017-09-04T05:22:39.299Z,9.00
2017-09-04T05:25:06.834Z,9.10
2017-09-04T05:27:34.395Z,9.10
2017-09-04T05:30:01.923Z,9.30
2017-09-04T05:32:29.455Z,9.40
2017-09-04T05:34:57.013Z,9.50
2017-09-04T05:37:24.545Z,9.50
2017-09-04T05:39:52.099Z,9.60
2017-09-04T05:42:19.638Z,9.60
2017-09-04T05:44:47.356Z,9.70
2017-09-04T05:47:14.885Z,9.70
2017-09-04T05:49:42.442Z,9.80
2017-09-04T05:52:09.970Z,9.80
2017-09-04T05:54:37.518Z,9.80
2017-09-04T05:57:05.054Z,9.90
2017-09-04T05:59:32.612Z,10.00
2017-09-04T06:02:00.148Z,10.00
2017-09-04T06:04:27.707Z,10.00
2017-09-04T06:06:55.250Z,10.00
2017-09-04T06:09:22.815Z,10.00
2017-09-04T06:11:50.346Z,10.00
2017-09-04T06:14:17.903Z,9.90
2017-09-04T06:16:45.430Z,9.90
2017-09-04T06:19:12.982Z,9.90
2017-09-04T06:21:40.518Z,9.90
2017-09-04T06:24:08.069Z,10.00
2017-09-04T06:26:35.597Z,9.90
2017-09-04T06:29:03.164Z,10.00
2017-09-04T06:31:30.707Z,10.10
2017-09-04T06:33:58.234Z,10.00
2017-09-04T06:36:25.799Z,10.30
2017-09-04T06:38:53.330Z,10.50
2017-09-04T06:41:20.891Z,10.30
2017-09-04T06:43:48.428Z,10.30
2017-09-04T06:46:15.985Z,10.40
2017-09-04T06:48:43.518Z,10.50
2017-09-04T06:51:11.084Z,10.50
2017-09-04T06:53:38.635Z,10.60
2017-09-04T06:56:06.196Z,10.50
2017-09-04T06:58:33.727Z,10.70
2017-09-04T07:01:01.289Z,10.70
2017-09-04T07:03:28.822Z,10.60
2017-09-04T07:05:56.388Z,10.70
2017-09-04T07:08:23.930Z,10.70
2017-09-04T07:10:51.483Z,10.70
2017-09-04T07:13:19.013Z,10.70
2017-09-04T07:15:46.575Z,10.80
2017-09-04T07:18:14.115Z,10.90
2017-09-04T07:20:41.674Z,11.10
2017-09-04T07:23:09.204Z,11.10
2017-09-04T07:25:36.759Z,11.20
2017-09-04T07:28:04.288Z,11.30
2017-09-04T07:30:31.864Z,11.60
2017-09-04T07:32:59.391Z,11.80
2017-09-04T07:35:26.924Z,11.90
2017-09-04T07:37:54.486Z,12.00
2017-09-04T07:40:22.019Z,11.90
2017-09-04T07:42:49.579Z,12.10
2017-09-04T07:45:17.121Z,12.20
2017-09-04T07:47:44.680Z,12.50
2017-09-04T07:50:12.211Z,12.60
2017-09-04T07:52:39.784Z,12.60
2017-09-04T07:55:07.313Z,12.70
2017-09-04T07:57:34.862Z,12.90
2017-09-04T08:00:02.399Z,13.20
2017-09-04T08:02:29.964Z,13.40
2017-09-04T08:04:57.502Z,13.60
2017-09-04T08:07:25.051Z,13.80
2017-09-04T08:09:52.587Z,13.60
2017-09-04T08:12:20.143Z,13.80
2017-09-04T08:14:47.675Z,14.10
2017-09-04T08:17:15.239Z,14.10
2017-09-04T08:19:42.777Z,14.30
2017-09-04T08:22:10.334Z,14.30
2017-09-04T08:24:37.864Z,14.30
2017-09-04T08:27:05.414Z,15.10
2017-09-04T08:29:32.941Z,15.70
2017-09-04T08:32:00.518Z,16.00
2017-09-04T08:34:28.051Z,16.20
2017-09-04T08:36:55.582Z,16.30
2017-09-04T08:39:23.131Z,16.40
2017-09-04T08:41:50.666Z,16.30
2017-09-04T08:44:18.218Z,16.10
2017-09-04T08:46:45.754Z,16.10
2017-09-04T08:49:13.310Z,16.20
2017-09-04T08:51:40.847Z,16.40
2017-09-04T08:54:08.402Z,16.40
2017-09-04T08:56:35.930Z,16.80
2017-09-04T08:59:03.488Z,16.90
2017-09-04T09:01:31.011Z,17.00
2017-09-04T09:03:58.566Z,17.10
2017-09-04T09:06:26.103Z,16.90
2017-09-04T09:08:53.663Z,16.40
2017-09-04T09:11:21.196Z,16.80
2017-09-04T09:13:48.751Z,16.90
2017-09-04T09:16:16.270Z,16.90
2017-09-04T09:18:43.830Z,16.80
2017-09-04T09:21:11.367Z,16.60
2017-09-04T09:23:38.926Z,17.00
2017-09-04T09:26:06.462Z,17.60
2017-09-04T09:28:34.021Z,17.70
2017-09-04T09:31:01.556Z,17.40
2017-09-04T09:33:29.107Z,18.00
2017-09-04T09:35:56.643Z,18.70
2017-09-04T09:38:24.202Z,18.80
2017-09-04T09:40:51.735Z,18.20
2017-09-04T09:43:19.283Z,18.40
2017-09-04T09:45:46.834Z,18.30
2017-09-04T09:48:14.370Z,18.40
2017-09-04T09:50:41.924Z,18.20
2017-09-04T09:53:09.461Z,17.90
2017-09-04T09:55:37.008Z,18.50
2017-09-04T09:58:04.543Z,18.00
2017-09-04T10:00:32.096Z,17.90
2017-09-04T10:02:59.631Z,17.70
2017-09-04T10:05:27.190Z,18.10
2017-09-04T10:07:54.723Z,18.50
2017-09-04T10:10:22.277Z,18.80
2017-09-04T10:12:49.811Z,18.60
2017-09-04T10:15:17.366Z,18.80
2017-09-04T10:17:44.897Z,18.30
2017-09-04T10:20:12.454Z,18.60
2017-09-04T10:22:39.986Z,19.00
2017-09-04T10:25:07.543Z,19.30
2017-09-04T10:27:35.069Z,18.90
2017-09-04T10:30:02.626Z,18.70
2017-09-04T10:32:30.157Z,19.00
2017-09-04T10:34:57.717Z,19.20
2017-09-04T10:37:25.254Z,19.20
2017-09-04T10:39:52.783Z,19.00
2017-09-04T10:42:20.330Z,18.80
2017-09-04T10:44:47.867Z,18.50
2017-09-04T10:47:15.441Z,19.50
2017-09-04T10:49:42.972Z,20.20
2017-09-04T10:52:10.526Z,20.40
2017-09-04T10:54:38.055Z,19.60
2017-09-04T10:57:05.612Z,19.70
2017-09-04T10:59:33.138Z,20.10
2017-09-04T11:02:00.700Z,19.90
2017-09-04T11:04:28.235Z,20.50
2017-09-04T11:06:55.791Z,20.60
2017-09-04T11:09:23.314Z,20.00
2017-09-04T11:11:50.871Z,19.40
2017-09-04T11:14:18.399Z,19.20
2017-09-04T11:16:45.954Z,19.00
2017-09-04T11:19:13.482Z,19.60
2017-09-04T11:21:41.026Z,19.90
2017-09-04T11:24:08.550Z,20.40
2017-09-04T11:26:36.099Z,20.50
2017-09-04T11:29:03.622Z,19.90
2017-09-04T11:31:31.187Z,19.40
2017-09-04T11:33:58.714Z,19.90
2017-09-04T11:36:26.291Z,20.00
2017-09-04T11:38:53.825Z,20.50
2017-09-04T11:41:21.356Z,20.30
2017-09-04T11:43:48.911Z,20.60
2017-09-04T11:46:16.434Z,20.70
2017-09-04T11:48:43.987Z,20.60
2017-09-04T11:51:11.519Z,21.00
2017-09-04T11:53:39.074Z,20.60
2017-09-04T11:56:06.604Z,20.30
2017-09-04T11:58:34.162Z,20.70
2017-09-04T12:01:01.695Z,20.80
2017-09-04T12:03:29.238Z,20.80
2017-09-04T12:05:56.758Z,20.90
2017-09-04T12:08:24.317Z,21.10
2017-09-04T12:10:51.847Z,20.90
2017-09-04T12:13:19.393Z,20.60
2017-09-04T12:15:46.926Z,21.70
2017-09-04T12:18:14.470Z,22.50
2017-09-04T12:20:41.999Z,22.40
2017-09-04T12:23:09.550Z,21.30
2017-09-04T12:25:37.082Z,21.30
2017-09-04T12:28:04.638Z,21.20
2017-09-04T12:30:32.159Z,21.20
2017-09-04T12:32:59.718Z,21.70
2017-09-04T12:35:27.238Z,21.40
2017-09-04T12:37:54.803Z,21.00
2017-09-04T12:40:22.330Z,20.90
2017-09-04T12:42:49.872Z,21.10
2017-09-04T12:45:17.423Z,21.00
2017-09-04T12:47:44.951Z,20.60
2017-09-04T12:50:12.513Z,20.80
2017-09-04T12:52:40.047Z,20.70
2017-09-04T12:55:07.590Z,20.90
2017-09-04T12:57:35.119Z,21.00
2017-09-04T13:00:02.662Z,21.50
2017-09-04T13:02:30.189Z,20.90
2017-09-04T13:04:57.743Z,21.70
2017-09-04T13:07:25.274Z,21.50
2017-09-04T13:09:52.823Z,21.90
2017-09-04T13:12:22.153Z,21.40
2017-09-04T13:14:55.395Z,21.40
2017-09-04T13:17:28.582Z,21.00
2017-09-04T13:20:01.742Z,20.70
2017-09-04T13:22:34.853Z,20.30
2017-09-04T13:28:11.043Z,19.80
2017-09-04T13:30:43.604Z,19.80
2017-09-04T13:33:16.860Z,19.60
2017-09-04T13:35:49.987Z,19.40
2017-09-04T13:38:23.309Z,19.40
2017-09-04T13:40:56.451Z,19.60
2017-09-04T13:46:52.591Z,20.10
2017-09-04T13:49:25.858Z,20.10
2017-09-04T13:51:59.175Z,20.00
2017-09-04T13:57:53.530Z,20.30
2017-09-04T14:03:35.943Z,19.50
2017-09-04T14:09:14.126Z,19.00
2017-09-04T14:11:55.452Z,18.90
2017-09-04T14:14:28.712Z,19.30
2017-09-04T14:20:00.466Z,19.60
2017-09-04T14:22:28.032Z,19.70
2017-09-04T14:24:55.573Z,19.90
2017-09-04T14:27:23.119Z,20.20
2017-09-04T14:29:50.655Z,20.50
2017-09-04T14:32:18.210Z,20.70
2017-09-04T14:34:45.748Z,20.10
2017-09-04T14:37:13.305Z,19.50
2017-09-04T14:39:40.834Z,19.40
2017-09-04T14:42:08.385Z,19.20
2017-09-04T14:44:35.917Z,19.50
2017-09-04T14:47:12.110Z,19.00
2017-09-04T14:49:39.639Z,18.50
2017-09-04T14:52:07.192Z,18.30
2017-09-04T14:54:34.715Z,18.20
2017-09-04T14:57:02.264Z,18.20
2017-09-04T14:59:29.803Z,18.20
2017-09-04T15:01:57.524Z,17.80
2017-09-04T15:04:25.059Z,17.80
2017-09-04T15:06:52.606Z,17.50
2017-09-04T15:09:20.134Z,17.60
2017-09-04T15:11:47.691Z,17.90
2017-09-04T15:14:15.219Z,17.80
2017-09-04T15:16:42.750Z,17.80
2017-09-04T15:19:10.298Z,17.70
2017-09-04T15:21:37.823Z,17.80
2017-09-04T15:24:05.375Z,17.80
2017-09-04T15:26:32.898Z,17.70
2017-09-04T15:29:00.455Z,17.30
2017-09-04T15:31:27.988Z,16.80
2017-09-04T15:33:55.544Z,16.50
2017-09-04T15:36:23.072Z,16.30
2017-09-04T15:38:50.619Z,16.50
2017-09-04T15:41:18.139Z,16.50
2017-09-04T15:43:45.704Z,16.40
2017-09-04T15:46:13.244Z,16.40
2017-09-04T15:48:40.800Z,16.40
2017-09-04T15:51:08.352Z,16.20
2017-09-04T15:53:35.924Z,15.90
2017-09-04T15:56:03.465Z,16.10
2017-09-04T15:58:31.021Z,16.20
2017-09-04T16:00:58.857Z,16.50
2017-09-04T16:03:26.404Z,16.60
2017-09-04T16:05:54.546Z,16.90
2017-09-04T16:08:23.043Z,16.60
2017-09-04T16:11:07.268Z,16.40
2017-09-04T16:13:35.298Z,16.60
2017-09-04T16:19:11.492Z,16.40
2017-09-04T16:24:45.966Z,16.20
2017-09-04T16:27:19.164Z,16.30
2017-09-04T16:29:48.520Z,16.30
2017-09-04T16:32:18.996Z,16.10
2017-09-04T16:34:47.361Z,16.20
2017-09-04T16:40:21.860Z,16.30
2017-09-04T16:42:49.394Z,16.40
2017-09-04T16:48:38.875Z,16.40
2017-09-04T16:51:06.431Z,16.60
2017-09-04T16:53:34.592Z,16.80
2017-09-04T16:56:19.995Z,16.70
2017-09-04T16:58:47.526Z,16.60
2017-09-04T17:01:15.095Z,16.60
2017-09-04T17:03:42.626Z,16.60
2017-09-04T17:06:10.187Z,16.50
2017-09-04T17:08:39.570Z,16.40
2017-09-04T17:11:08.043Z,16.20
2017-09-04T17:13:35.575Z,16.20
2017-09-04T17:16:03.127Z,16.10
2017-09-04T17:18:32.626Z,16.10
2017-09-04T17:21:05.019Z,16.00
2017-09-04T17:23:33.642Z,15.80
2017-09-04T17:26:01.211Z,15.90
2017-09-04T17:28:28.761Z,15.90
2017-09-04T17:30:56.313Z,15.60
2017-09-04T17:33:23.846Z,15.60
2017-09-04T17:35:55.844Z,15.60
2017-09-04T17:38:23.384Z,15.50
2017-09-04T17:40:50.919Z,15.50
2017-09-04T17:43:18.564Z,15.50
2017-09-04T17:45:46.110Z,15.40
2017-09-04T17:48:13.682Z,15.50
2017-09-04T17:50:41.218Z,15.40
2017-09-04T17:53:08.763Z,15.10
2017-09-04T17:55:36.299Z,15.10
2017-09-04T17:58:03.859Z,15.10
2017-09-04T18:00:31.383Z,15.10
2017-09-04T18:02:58.944Z,15.00
2017-09-04T18:05:26.483Z,14.90
2017-09-04T18:07:54.045Z,14.80
2017-09-04T18:10:21.591Z,14.70
2017-09-04T18:12:49.151Z,14.80
2017-09-04T18:15:16.684Z,14.70
2017-09-04T18:17:44.244Z,14.70
2017-09-04T18:20:11.874Z,14.80
2017-09-04T18:22:39.459Z,14.80
2017-09-04T18:25:06.994Z,14.80
2017-09-04T18:27:34.556Z,14.70
2017-09-04T18:30:02.112Z,14.60
2017-09-04T18:32:29.670Z,14.60
2017-09-04T18:34:57.238Z,14.60
2017-09-04T18:37:24.788Z,14.60
2017-09-04T18:39:52.347Z,14.50
2017-09-04T18:42:19.900Z,14.50
2017-09-04T18:44:47.496Z,14.50
2017-09-04T18:47:15.038Z,14.50
2017-09-04T18:49:42.596Z,14.50
2017-09-04T18:52:10.132Z,14.60
2017-09-04T18:54:37.695Z,14.60
2017-09-04T18:57:05.227Z,14.50
2017-09-04T18:59:32.782Z,14.40
2017-09-04T19:02:00.309Z,14.50
2017-09-04T19:04:27.864Z,14.40
2017-09-04T19:06:55.399Z,14.50
2017-09-04T19:11:52.158Z,14.30
2017-09-04T19:14:20.750Z,14.40
2017-09-04T19:16:49.216Z,14.40
2017-09-04T19:19:17.570Z,14.30
2017-09-04T19:21:45.768Z,14.30
2017-09-04T19:24:14.050Z,14.30
2017-09-04T19:26:42.300Z,14.30
2017-09-04T19:29:10.593Z,14.20
2017-09-04T19:31:38.178Z,14.20
2017-09-04T19:34:07.013Z,14.30
2017-09-04T19:36:34.802Z,14.30
2017-09-04T19:39:03.751Z,14.40
2017-09-04T19:41:34.359Z,14.40
2017-09-04T19:44:01.908Z,14.30
2017-09-04T19:46:29.465Z,14.30
2017-09-04T19:48:56.998Z,14.30
2017-09-04T19:51:24.559Z,14.30
2017-09-04T19:53:52.218Z,14.20
2017-09-04T19:56:19.771Z,14.30
2017-09-04T19:58:47.303Z,14.10
2017-09-04T20:01:14.867Z,14.00
2017-09-04T20:03:42.403Z,14.00
2017-09-04T20:06:09.965Z,14.00
2017-09-04T20:08:37.497Z,14.00
2017-09-04T20:11:05.042Z,13.90
2017-09-04T20:13:32.573Z,14.00
2017-09-04T20:16:00.132Z,13.90
2017-09-04T20:18:27.664Z,13.80
2017-09-04T20:20:55.225Z,13.80
2017-09-04T20:23:22.768Z,13.80
2017-09-04T20:25:50.319Z,13.90
2017-09-04T20:28:17.860Z,13.90
2017-09-04T20:30:45.426Z,14.00
2017-09-04T20:33:12.964Z,14.00
2017-09-04T20:35:40.518Z,14.00
2017-09-04T20:38:08.046Z,14.00
2017-09-04T20:40:35.608Z,14.10
2017-09-04T20:43:03.135Z,14.10
2017-09-04T20:45:30.691Z,14.00
2017-09-04T20:47:58.246Z,14.00
2017-09-04T20:50:25.788Z,13.90
2017-09-04T20:52:53.348Z,13.80
2017-09-04T20:55:20.882Z,13.70
2017-09-04T20:57:48.444Z,13.80
2017-09-04T21:00:15.971Z,13.80
2017-09-04T21:02:43.615Z,13.70
2017-09-04T21:05:11.190Z,13.70
2017-09-04T21:07:38.750Z,13.80
2017-09-04T21:10:06.274Z,13.80
2017-09-04T21:12:33.822Z,13.70
2017-09-04T21:15:01.346Z,13.60
2017-09-04T21:17:28.908Z,13.80
2017-09-04T21:19:56.434Z,13.80
2017-09-04T21:22:23.987Z,13.80
2017-09-04T21:24:51.520Z,13.80
2017-09-04T21:27:19.079Z,13.90
2017-09-04T21:29:46.606Z,13.80
2017-09-04T21:32:14.158Z,13.80
2017-09-04T21:34:41.679Z,13.60
2017-09-04T21:37:09.227Z,13.50
2017-09-04T21:39:36.762Z,13.50
2017-09-04T21:42:04.334Z,13.50
2017-09-04T21:44:31.868Z,13.50
2017-09-04T21:46:59.403Z,13.60
2017-09-04T21:49:26.951Z,13.50
2017-09-04T21:51:54.486Z,13.40
2017-09-04T21:54:22.043Z,13.30
2017-09-04T21:56:49.573Z,13.20
2017-09-04T21:59:17.122Z,13.20
2017-09-04T22:01:45.583Z,13.20
2017-09-04T22:04:13.138Z,13.20
2017-09-04T22:06:40.661Z,13.20
2017-09-04T22:09:08.219Z,13.20
2017-09-04T22:11:35.746Z,13.20
2017-09-04T22:14:03.295Z,13.20
2017-09-04T22:16:30.829Z,13.20
2017-09-04T22:18:58.383Z,13.30
2017-09-04T22:21:25.911Z,13.30
2017-09-04T22:23:53.466Z,13.40
2017-09-04T22:26:21.000Z,13.40
2017-09-04T22:28:48.550Z,13.40
2017-09-04T22:51:38.290Z,13.10
2017-09-04T22:54:05.831Z,13.00
2017-09-04T22:56:33.359Z,13.00
2017-09-04T22:59:01.670Z,13.00
2017-09-04T23:01:29.225Z,13.00
2017-09-04T23:03:56.774Z,13.00
2017-09-04T23:06:24.303Z,13.00
2017-09-04T23:08:51.828Z,12.90
2017-09-04T23:11:19.381Z,13.00
2017-09-04T23:13:46.901Z,13.10
2017-09-04T23:16:14.459Z,13.00
2017-09-04T23:18:42.023Z,13.10
2017-09-04T23:21:09.576Z,13.10
2017-09-04T23:23:37.106Z,13.10
2017-09-04T23:26:04.658Z,13.10
2017-09-04T23:28:32.184Z,13.10
2017-09-04T23:30:59.738Z,13.10
2017-09-04T23:33:27.262Z,13.10
2017-09-04T23:35:54.823Z,13.20
2017-09-04T23:38:22.359Z,13.20
2017-09-04T23:40:49.911Z,13.20
2017-09-04T23:43:17.444Z,13.20
2017-09-04T23:45:45.005Z,13.30
2017-09-04T23:48:12.567Z,13.30
2017-09-04T23:50:40.127Z,13.40
2017-09-04T23:53:07.669Z,13.40
2017-09-04T23:55:35.219Z,13.40
2017-09-04T23:58:02.760Z,13.40
